sensor_id;sensor_type;location;lat;lon;timestamp;P1;durP1;ratioP1;P2;durP2;ratioP2
21827;SDS011;11076;47.942;11.804;2023-07-20T00:02:07;11.95;;;4.22;;
21827;SDS011;11076;47.942;11.804;2023-07-20T00:07:27;11.93;;;3.72;;
21827;SDS011;11076;47.942;11.804;2023-07-20T00:12:30;7.18;;;3.28;;
21827;SDS011;11076;47.942;11.804;2023-07-20T00:17:33;6.70;;;3.17;;
21827;SDS011;11076;47.942;11.804;2023-07-20T00:22:35;8.77;;;3.50;;
21827;SDS011;11076;47.942;11.804;2023-07-20T00:27:38;6.70;;;3.10;;
21827;SDS011;11076;47.942;11.804;2023-07-20T00:32:41;7.07;;;3.22;;
21827;SDS011;11076;47.942;11.804;2023-07-20T00:37:44;8.52;;;3.20;;
21827;SDS011;11076;47.942;11.804;2023-07-20T00:42:47;10.27;;;3.75;;
21827;SDS011;11076;47.942;11.804;2023-07-20T00:47:56;4.90;;;3.10;;
21827;SDS011;11076;47.942;11.804;2023-07-20T00:52:59;10.55;;;3.03;;
21827;SDS011;11076;47.942;11.804;2023-07-20T00:58:02;10.85;;;2.90;;
21827;SDS011;11076;47.942;11.804;2023-07-20T01:03:05;7.53;;;2.80;;
21827;SDS011;11076;47.942;11.804;2023-07-20T01:08:10;6.35;;;2.83;;
21827;SDS011;11076;47.942;11.804;2023-07-20T01:13:18;4.60;;;3.47;;
21827;SDS011;11076;47.942;11.804;2023-07-20T01:18:23;5.20;;;3.00;;
21827;SDS011;11076;47.942;11.804;2023-07-20T01:23:30;6.10;;;3.67;;
21827;SDS011;11076;47.942;11.804;2023-07-20T01:34:15;9.40;;;3.67;;
21827;SDS011;11076;47.942;11.804;2023-07-20T01:39:20;10.30;;;3.40;;
21827;SDS011;11076;47.942;11.804;2023-07-20T01:44:24;6.70;;;3.55;;
21827;SDS011;11076;47.942;11.804;2023-07-20T01:49:27;7.47;;;3.38;;
21827;SDS011;11076;47.942;11.804;2023-07-20T01:54:29;7.55;;;3.20;;
21827;SDS011;11076;47.942;11.804;2023-07-20T01:59:32;5.85;;;3.83;;
21827;SDS011;11076;47.942;11.804;2023-07-20T02:04:34;8.25;;;3.75;;
21827;SDS011;11076;47.942;11.804;2023-07-20T02:09:37;5.47;;;3.08;;
21827;SDS011;11076;47.942;11.804;2023-07-20T02:14:42;6.70;;;3.13;;
21827;SDS011;11076;47.942;11.804;2023-07-20T02:19:44;7.68;;;3.70;;
21827;SDS011;11076;47.942;11.804;2023-07-20T02:24:47;6.32;;;3.40;;
21827;SDS011;11076;47.942;11.804;2023-07-20T02:29:50;4.13;;;3.20;;
21827;SDS011;11076;47.942;11.804;2023-07-20T02:34:52;7.00;;;3.13;;
21827;SDS011;11076;47.942;11.804;2023-07-20T02:39:55;5.68;;;3.30;;
21827;SDS011;11076;47.942;11.804;2023-07-20T02:44:57;4.68;;;3.35;;
21827;SDS011;11076;47.942;11.804;2023-07-20T02:50:00;6.65;;;3.30;;
21827;SDS011;11076;47.942;11.804;2023-07-20T02:55:02;7.70;;;3.55;;
21827;SDS011;11076;47.942;11.804;2023-07-20T03:00:05;6.53;;;3.35;;
21827;SDS011;11076;47.942;11.804;2023-07-20T03:05:08;9.60;;;3.88;;
21827;SDS011;11076;47.942;11.804;2023-07-20T03:10:11;5.60;;;3.72;;
21827;SDS011;11076;47.942;11.804;2023-07-20T03:15:13;4.47;;;2.90;;
21827;SDS011;11076;47.942;11.804;2023-07-20T03:20:16;7.43;;;2.97;;
21827;SDS011;11076;47.942;11.804;2023-07-20T03:25:18;8.98;;;3.45;;
21827;SDS011;11076;47.942;11.804;2023-07-20T03:30:21;11.75;;;3.63;;
21827;SDS011;11076;47.942;11.804;2023-07-20T03:35:25;6.50;;;4.28;;
21827;SDS011;11076;47.942;11.804;2023-07-20T03:40:27;5.88;;;4.15;;
21827;SDS011;11076;47.942;11.804;2023-07-20T03:45:30;6.00;;;3.10;;
21827;SDS011;11076;47.942;11.804;2023-07-20T03:50:32;8.88;;;3.53;;
21827;SDS011;11076;47.942;11.804;2023-07-20T03:55:35;6.00;;;2.85;;
21827;SDS011;11076;47.942;11.804;2023-07-20T04:00:37;8.35;;;2.45;;
21827;SDS011;11076;47.942;11.804;2023-07-20T04:05:40;11.02;;;2.05;;
21827;SDS011;11076;47.942;11.804;2023-07-20T04:10:43;4.13;;;2.50;;
21827;SDS011;11076;47.942;11.804;2023-07-20T04:15:46;8.00;;;2.13;;
21827;SDS011;11076;47.942;11.804;2023-07-20T04:20:49;5.50;;;1.80;;
21827;SDS011;11076;47.942;11.804;2023-07-20T04:25:51;3.03;;;1.77;;
21827;SDS011;11076;47.942;11.804;2023-07-20T04:30:54;1.73;;;1.55;;
21827;SDS011;11076;47.942;11.804;2023-07-20T04:35:57;2.80;;;1.67;;
21827;SDS011;11076;47.942;11.804;2023-07-20T04:41:05;5.22;;;1.98;;
21827;SDS011;11076;47.942;11.804;2023-07-20T04:46:12;6.63;;;2.13;;
21827;SDS011;11076;47.942;11.804;2023-07-20T04:51:16;2.60;;;1.65;;
21827;SDS011;11076;47.942;11.804;2023-07-20T04:56:24;4.15;;;1.90;;
21827;SDS011;11076;47.942;11.804;2023-07-20T05:01:29;5.93;;;2.00;;
21827;SDS011;11076;47.942;11.804;2023-07-20T05:06:31;3.25;;;1.90;;
21827;SDS011;11076;47.942;11.804;2023-07-20T05:11:35;3.90;;;1.77;;
21827;SDS011;11076;47.942;11.804;2023-07-20T05:16:37;1.90;;;1.70;;
21827;SDS011;11076;47.942;11.804;2023-07-20T05:21:41;3.72;;;1.50;;
21827;SDS011;11076;47.942;11.804;2023-07-20T05:26:44;2.65;;;1.77;;
21827;SDS011;11076;47.942;11.804;2023-07-20T05:31:46;4.03;;;1.92;;
21827;SDS011;11076;47.942;11.804;2023-07-20T05:36:49;2.72;;;2.13;;
21827;SDS011;11076;47.942;11.804;2023-07-20T05:41:51;7.03;;;2.33;;
21827;SDS011;11076;47.942;11.804;2023-07-20T05:46:54;4.45;;;2.03;;
21827;SDS011;11076;47.942;11.804;2023-07-20T05:51:58;4.07;;;2.30;;
21827;SDS011;11076;47.942;11.804;2023-07-20T05:57:00;7.85;;;2.22;;
21827;SDS011;11076;47.942;11.804;2023-07-20T06:02:04;2.63;;;2.15;;
21827;SDS011;11076;47.942;11.804;2023-07-20T06:07:06;6.72;;;2.15;;
21827;SDS011;11076;47.942;11.804;2023-07-20T06:12:12;5.05;;;2.22;;
21827;SDS011;11076;47.942;11.804;2023-07-20T06:17:14;3.80;;;2.10;;
21827;SDS011;11076;47.942;11.804;2023-07-20T06:22:17;5.32;;;2.33;;
21827;SDS011;11076;47.942;11.804;2023-07-20T06:27:19;7.93;;;2.58;;
21827;SDS011;11076;47.942;11.804;2023-07-20T06:32:22;5.68;;;2.40;;
21827;SDS011;11076;47.942;11.804;2023-07-20T06:37:24;5.65;;;2.15;;
21827;SDS011;11076;47.942;11.804;2023-07-20T06:42:27;3.58;;;2.22;;
21827;SDS011;11076;47.942;11.804;2023-07-20T06:47:49;6.28;;;2.47;;
21827;SDS011;11076;47.942;11.804;2023-07-20T06:52:51;7.72;;;2.50;;
21827;SDS011;11076;47.942;11.804;2023-07-20T06:57:54;2.92;;;2.25;;
21827;SDS011;11076;47.942;11.804;2023-07-20T07:03:00;6.45;;;2.33;;
21827;SDS011;11076;47.942;11.804;2023-07-20T07:08:04;7.35;;;2.63;;
21827;SDS011;11076;47.942;11.804;2023-07-20T07:13:07;5.80;;;2.35;;
21827;SDS011;11076;47.942;11.804;2023-07-20T07:18:09;2.28;;;2.08;;
21827;SDS011;11076;47.942;11.804;2023-07-20T07:23:12;3.13;;;2.33;;
21827;SDS011;11076;47.942;11.804;2023-07-20T07:28:14;3.90;;;1.95;;
21827;SDS011;11076;47.942;11.804;2023-07-20T07:33:16;2.90;;;1.92;;
21827;SDS011;11076;47.942;11.804;2023-07-20T07:38:19;5.80;;;2.63;;
21827;SDS011;11076;47.942;11.804;2023-07-20T07:43:32;2.83;;;1.90;;
21827;SDS011;11076;47.942;11.804;2023-07-20T07:48:35;5.50;;;2.50;;
21827;SDS011;11076;47.942;11.804;2023-07-20T07:53:37;4.15;;;2.03;;
21827;SDS011;11076;47.942;11.804;2023-07-20T07:58:41;8.48;;;2.00;;
21827;SDS011;11076;47.942;11.804;2023-07-20T08:03:43;4.20;;;1.98;;
21827;SDS011;11076;47.942;11.804;2023-07-20T08:08:47;2.78;;;1.83;;
21827;SDS011;11076;47.942;11.804;2023-07-20T08:13:50;4.93;;;2.20;;
21827;SDS011;11076;47.942;11.804;2023-07-20T08:18:52;7.97;;;2.28;;
21827;SDS011;11076;47.942;11.804;2023-07-20T08:23:54;3.28;;;2.28;;
21827;SDS011;11076;47.942;11.804;2023-07-20T08:28:57;2.65;;;2.03;;
21827;SDS011;11076;47.942;11.804;2023-07-20T08:33:59;2.47;;;1.83;;
21827;SDS011;11076;47.942;11.804;2023-07-20T08:39:02;13.10;;;2.40;;
21827;SDS011;11076;47.942;11.804;2023-07-20T08:44:05;3.58;;;1.90;;
21827;SDS011;11076;47.942;11.804;2023-07-20T08:49:09;3.47;;;2.33;;
21827;SDS011;11076;47.942;11.804;2023-07-20T08:54:13;4.95;;;2.05;;
21827;SDS011;11076;47.942;11.804;2023-07-20T08:59:17;1.85;;;1.70;;
21827;SDS011;11076;47.942;11.804;2023-07-20T09:04:20;5.50;;;2.10;;
21827;SDS011;11076;47.942;11.804;2023-07-20T09:09:22;9.32;;;1.85;;
21827;SDS011;11076;47.942;11.804;2023-07-20T09:14:25;5.05;;;1.98;;
21827;SDS011;11076;47.942;11.804;2023-07-20T09:19:27;3.60;;;1.92;;
21827;SDS011;11076;47.942;11.804;2023-07-20T09:24:30;4.22;;;1.80;;
21827;SDS011;11076;47.942;11.804;2023-07-20T09:29:32;7.25;;;1.60;;
21827;SDS011;11076;47.942;11.804;2023-07-20T09:34:35;5.20;;;1.55;;
21827;SDS011;11076;47.942;11.804;2023-07-20T09:39:44;3.58;;;1.80;;
21827;SDS011;11076;47.942;11.804;2023-07-20T09:44:50;4.18;;;1.90;;
21827;SDS011;11076;47.942;11.804;2023-07-20T09:49:57;4.45;;;1.98;;
21827;SDS011;11076;47.942;11.804;2023-07-20T09:55:05;6.93;;;2.20;;
21827;SDS011;11076;47.942;11.804;2023-07-20T10:00:08;5.38;;;2.13;;
21827;SDS011;11076;47.942;11.804;2023-07-20T10:05:18;2.65;;;2.20;;
21827;SDS011;11076;47.942;11.804;2023-07-20T10:10:21;3.28;;;2.17;;
21827;SDS011;11076;47.942;11.804;2023-07-20T10:15:28;3.33;;;2.20;;
21827;SDS011;11076;47.942;11.804;2023-07-20T10:20:36;3.17;;;1.77;;
21827;SDS011;11076;47.942;11.804;2023-07-20T10:26:02;13.55;;;2.50;;
21827;SDS011;11076;47.942;11.804;2023-07-20T10:31:07;3.97;;;1.80;;
21827;SDS011;11076;47.942;11.804;2023-07-20T10:36:11;7.75;;;2.50;;
21827;SDS011;11076;47.942;11.804;2023-07-20T10:41:18;7.10;;;2.25;;
21827;SDS011;11076;47.942;11.804;2023-07-20T10:56:42;4.03;;;1.90;;
21827;SDS011;11076;47.942;11.804;2023-07-20T11:01:57;4.13;;;1.98;;
21827;SDS011;11076;47.942;11.804;2023-07-20T11:07:05;3.10;;;1.63;;
21827;SDS011;11076;47.942;11.804;2023-07-20T11:12:08;2.50;;;2.00;;
21827;SDS011;11076;47.942;11.804;2023-07-20T11:17:12;2.60;;;1.90;;
21827;SDS011;11076;47.942;11.804;2023-07-20T11:22:17;3.80;;;2.08;;
21827;SDS011;11076;47.942;11.804;2023-07-20T11:27:19;3.88;;;2.10;;
21827;SDS011;11076;47.942;11.804;2023-07-20T11:32:24;4.97;;;2.08;;
21827;SDS011;11076;47.942;11.804;2023-07-20T11:37:26;2.83;;;2.35;;
21827;SDS011;11076;47.942;11.804;2023-07-20T11:42:29;3.58;;;2.30;;
21827;SDS011;11076;47.942;11.804;2023-07-20T11:47:34;6.25;;;2.17;;
21827;SDS011;11076;47.942;11.804;2023-07-20T11:52:44;5.32;;;2.80;;
21827;SDS011;11076;47.942;11.804;2023-07-20T11:58:04;3.92;;;2.30;;
21827;SDS011;11076;47.942;11.804;2023-07-20T12:03:09;8.55;;;2.30;;
21827;SDS011;11076;47.942;11.804;2023-07-20T12:08:12;2.50;;;2.08;;
21827;SDS011;11076;47.942;11.804;2023-07-20T12:13:15;2.10;;;1.90;;
21827;SDS011;11076;47.942;11.804;2023-07-20T12:18:17;7.22;;;2.38;;
21827;SDS011;11076;47.942;11.804;2023-07-20T12:23:19;2.78;;;1.88;;
21827;SDS011;11076;47.942;11.804;2023-07-20T12:28:22;6.20;;;2.38;;
21827;SDS011;11076;47.942;11.804;2023-07-20T12:33:24;4.75;;;2.05;;
21827;SDS011;11076;47.942;11.804;2023-07-20T12:45:03;3.30;;;2.20;;
21827;SDS011;11076;47.942;11.804;2023-07-20T12:50:06;6.70;;;2.03;;
21827;SDS011;11076;47.942;11.804;2023-07-20T12:55:09;2.85;;;1.83;;
21827;SDS011;11076;47.942;11.804;2023-07-20T13:00:13;7.03;;;2.30;;
21827;SDS011;11076;47.942;11.804;2023-07-20T13:05:16;4.18;;;2.13;;
21827;SDS011;11076;47.942;11.804;2023-07-20T13:10:19;5.07;;;2.00;;
21827;SDS011;11076;47.942;11.804;2023-07-20T13:15:24;8.90;;;2.13;;
21827;SDS011;11076;47.942;11.804;2023-07-20T13:20:31;5.10;;;2.30;;
21827;SDS011;11076;47.942;11.804;2023-07-20T13:25:34;3.22;;;1.90;;
21827;SDS011;11076;47.942;11.804;2023-07-20T13:30:36;6.35;;;2.38;;
21827;SDS011;11076;47.942;11.804;2023-07-20T13:35:40;3.67;;;2.08;;
21827;SDS011;11076;47.942;11.804;2023-07-20T13:40:46;6.53;;;2.00;;
21827;SDS011;11076;47.942;11.804;2023-07-20T13:45:49;6.70;;;2.22;;
21827;SDS011;11076;47.942;11.804;2023-07-20T13:50:51;1.95;;;1.83;;
21827;SDS011;11076;47.942;11.804;2023-07-20T13:55:57;3.53;;;2.17;;
21827;SDS011;11076;47.942;11.804;2023-07-20T14:01:03;2.30;;;2.05;;
21827;SDS011;11076;47.942;11.804;2023-07-20T14:06:05;3.30;;;1.85;;
21827;SDS011;11076;47.942;11.804;2023-07-20T14:11:11;1.88;;;1.63;;
21827;SDS011;11076;47.942;11.804;2023-07-20T14:16:16;3.03;;;2.15;;
21827;SDS011;11076;47.942;11.804;2023-07-20T14:21:19;2.30;;;1.83;;
21827;SDS011;11076;47.942;11.804;2023-07-20T14:26:23;4.88;;;1.70;;
21827;SDS011;11076;47.942;11.804;2023-07-20T14:31:25;6.68;;;2.00;;
21827;SDS011;11076;47.942;11.804;2023-07-20T14:36:28;2.53;;;2.30;;
21827;SDS011;11076;47.942;11.804;2023-07-20T14:41:30;3.15;;;2.13;;
21827;SDS011;11076;47.942;11.804;2023-07-20T14:46:33;2.38;;;1.85;;
21827;SDS011;11076;47.942;11.804;2023-07-20T14:51:35;4.32;;;1.92;;
21827;SDS011;11076;47.942;11.804;2023-07-20T14:56:38;6.60;;;2.35;;
21827;SDS011;11076;47.942;11.804;2023-07-20T15:01:42;4.00;;;2.15;;
21827;SDS011;11076;47.942;11.804;2023-07-20T15:06:45;7.18;;;2.20;;
21827;SDS011;11076;47.942;11.804;2023-07-20T15:11:47;3.33;;;1.83;;
21827;SDS011;11076;47.942;11.804;2023-07-20T15:16:50;4.28;;;1.80;;
21827;SDS011;11076;47.942;11.804;2023-07-20T15:21:52;4.10;;;2.08;;
21827;SDS011;11076;47.942;11.804;2023-07-20T15:26:56;3.38;;;1.77;;
21827;SDS011;11076;47.942;11.804;2023-07-20T15:31:59;2.65;;;1.83;;
21827;SDS011;11076;47.942;11.804;2023-07-20T15:37:01;3.67;;;1.92;;
21827;SDS011;11076;47.942;11.804;2023-07-20T15:42:05;5.25;;;1.75;;
21827;SDS011;11076;47.942;11.804;2023-07-20T15:47:08;4.88;;;2.20;;
21827;SDS011;11076;47.942;11.804;2023-07-20T15:52:10;12.27;;;2.65;;
21827;SDS011;11076;47.942;11.804;2023-07-20T15:57:14;3.92;;;2.25;;
21827;SDS011;11076;47.942;11.804;2023-07-20T16:02:17;3.00;;;1.60;;
21827;SDS011;11076;47.942;11.804;2023-07-20T16:07:19;3.25;;;2.28;;
21827;SDS011;11076;47.942;11.804;2023-07-20T16:12:22;3.58;;;2.33;;
21827;SDS011;11076;47.942;11.804;2023-07-20T16:17:28;3.45;;;1.60;;
21827;SDS011;11076;47.942;11.804;2023-07-20T16:22:30;6.50;;;1.70;;
21827;SDS011;11076;47.942;11.804;2023-07-20T16:27:32;3.22;;;1.80;;
21827;SDS011;11076;47.942;11.804;2023-07-20T16:32:35;4.75;;;1.88;;
21827;SDS011;11076;47.942;11.804;2023-07-20T16:37:37;3.85;;;1.70;;
21827;SDS011;11076;47.942;11.804;2023-07-20T16:42:40;5.22;;;2.20;;
21827;SDS011;11076;47.942;11.804;2023-07-20T16:47:45;2.20;;;1.73;;
21827;SDS011;11076;47.942;11.804;2023-07-20T16:52:48;3.03;;;2.13;;
21827;SDS011;11076;47.942;11.804;2023-07-20T16:57:51;6.15;;;2.20;;
21827;SDS011;11076;47.942;11.804;2023-07-20T17:02:53;5.53;;;2.95;;
21827;SDS011;11076;47.942;11.804;2023-07-20T17:07:56;4.28;;;2.25;;
21827;SDS011;11076;47.942;11.804;2023-07-20T17:12:58;3.97;;;2.25;;
21827;SDS011;11076;47.942;11.804;2023-07-20T17:18:01;7.75;;;2.38;;
21827;SDS011;11076;47.942;11.804;2023-07-20T17:23:03;2.47;;;2.05;;
21827;SDS011;11076;47.942;11.804;2023-07-20T17:28:05;3.63;;;2.22;;
21827;SDS011;11076;47.942;11.804;2023-07-20T17:33:11;3.58;;;2.08;;
21827;SDS011;11076;47.942;11.804;2023-07-20T17:38:13;4.95;;;2.20;;
21827;SDS011;11076;47.942;11.804;2023-07-20T17:43:19;3.97;;;2.20;;
21827;SDS011;11076;47.942;11.804;2023-07-20T17:48:22;2.95;;;2.40;;
21827;SDS011;11076;47.942;11.804;2023-07-20T17:53:24;5.30;;;2.33;;
21827;SDS011;11076;47.942;11.804;2023-07-20T17:58:27;2.92;;;2.35;;
21827;SDS011;11076;47.942;11.804;2023-07-20T18:03:30;5.30;;;2.35;;
21827;SDS011;11076;47.942;11.804;2023-07-20T18:08:33;8.48;;;2.45;;
21827;SDS011;11076;47.942;11.804;2023-07-20T18:13:36;6.93;;;3.08;;
21827;SDS011;11076;47.942;11.804;2023-07-20T18:18:38;3.47;;;2.70;;
21827;SDS011;11076;47.942;11.804;2023-07-20T18:23:41;4.78;;;2.28;;
21827;SDS011;11076;47.942;11.804;2023-07-20T18:28:43;4.40;;;2.22;;
21827;SDS011;11076;47.942;11.804;2023-07-20T18:33:45;2.90;;;2.22;;
21827;SDS011;11076;47.942;11.804;2023-07-20T18:38:48;5.97;;;2.47;;
21827;SDS011;11076;47.942;11.804;2023-07-20T18:43:50;3.70;;;2.40;;
21827;SDS011;11076;47.942;11.804;2023-07-20T18:48:52;5.10;;;2.70;;
21827;SDS011;11076;47.942;11.804;2023-07-20T18:53:55;7.20;;;2.55;;
21827;SDS011;11076;47.942;11.804;2023-07-20T18:58:57;3.72;;;2.22;;
21827;SDS011;11076;47.942;11.804;2023-07-20T19:04:00;9.38;;;2.53;;
21827;SDS011;11076;47.942;11.804;2023-07-20T19:09:03;4.00;;;2.95;;
21827;SDS011;11076;47.942;11.804;2023-07-20T19:14:06;6.15;;;2.78;;
21827;SDS011;11076;47.942;11.804;2023-07-20T19:19:09;7.68;;;3.08;;
21827;SDS011;11076;47.942;11.804;2023-07-20T19:24:11;4.55;;;3.03;;
21827;SDS011;11076;47.942;11.804;2023-07-20T19:29:14;3.85;;;2.85;;
21827;SDS011;11076;47.942;11.804;2023-07-20T19:34:16;7.07;;;3.20;;
21827;SDS011;11076;47.942;11.804;2023-07-20T19:39:19;7.97;;;3.20;;
21827;SDS011;11076;47.942;11.804;2023-07-20T19:44:22;7.80;;;3.30;;
21827;SDS011;11076;47.942;11.804;2023-07-20T19:49:24;5.35;;;2.83;;
21827;SDS011;11076;47.942;11.804;2023-07-20T19:54:28;6.25;;;2.85;;
21827;SDS011;11076;47.942;11.804;2023-07-20T19:59:32;4.53;;;2.85;;
21827;SDS011;11076;47.942;11.804;2023-07-20T20:04:36;4.50;;;3.20;;
21827;SDS011;11076;47.942;11.804;2023-07-20T20:09:41;6.22;;;3.22;;
21827;SDS011;11076;47.942;11.804;2023-07-20T20:14:44;7.95;;;3.13;;
21827;SDS011;11076;47.942;11.804;2023-07-20T20:19:46;5.38;;;3.63;;
21827;SDS011;11076;47.942;11.804;2023-07-20T20:24:51;4.35;;;3.17;;
21827;SDS011;11076;47.942;11.804;2023-07-20T20:29:54;6.13;;;3.22;;
21827;SDS011;11076;47.942;11.804;2023-07-20T20:34:58;8.85;;;3.50;;
21827;SDS011;11076;47.942;11.804;2023-07-20T20:40:00;5.72;;;2.80;;
21827;SDS011;11076;47.942;11.804;2023-07-20T20:45:03;5.28;;;3.10;;
21827;SDS011;11076;47.942;11.804;2023-07-20T20:50:06;6.30;;;3.13;;
21827;SDS011;11076;47.942;11.804;2023-07-20T20:55:11;5.95;;;3.20;;
21827;SDS011;11076;47.942;11.804;2023-07-20T21:00:13;3.38;;;2.80;;
21827;SDS011;11076;47.942;11.804;2023-07-20T21:05:16;4.70;;;3.15;;
21827;SDS011;11076;47.942;11.804;2023-07-20T21:10:19;6.55;;;3.50;;
21827;SDS011;11076;47.942;11.804;2023-07-20T21:15:21;6.40;;;3.80;;
21827;SDS011;11076;47.942;11.804;2023-07-20T21:20:24;9.52;;;4.13;;
21827;SDS011;11076;47.942;11.804;2023-07-20T21:25:26;5.30;;;4.07;;
21827;SDS011;11076;47.942;11.804;2023-07-20T21:30:29;10.35;;;3.67;;
21827;SDS011;11076;47.942;11.804;2023-07-20T21:35:31;13.35;;;3.47;;
21827;SDS011;11076;47.942;11.804;2023-07-20T21:40:36;6.55;;;3.55;;
21827;SDS011;11076;47.942;11.804;2023-07-20T21:45:39;4.30;;;3.58;;
21827;SDS011;11076;47.942;11.804;2023-07-20T21:50:50;8.25;;;4.07;;
21827;SDS011;11076;47.942;11.804;2023-07-20T21:55:53;8.52;;;5.90;;
21827;SDS011;11076;47.942;11.804;2023-07-20T22:00:56;6.88;;;6.00;;
21827;SDS011;11076;47.942;11.804;2023-07-20T22:06:01;7.35;;;5.38;;
21827;SDS011;11076;47.942;11.804;2023-07-20T22:11:07;11.43;;;4.80;;
21827;SDS011;11076;47.942;11.804;2023-07-20T22:16:10;10.00;;;4.68;;
21827;SDS011;11076;47.942;11.804;2023-07-20T22:21:12;6.65;;;4.68;;
21827;SDS011;11076;47.942;11.804;2023-07-20T22:26:15;7.43;;;4.45;;
21827;SDS011;11076;47.942;11.804;2023-07-20T22:31:19;9.80;;;4.15;;
21827;SDS011;11076;47.942;11.804;2023-07-20T22:36:21;6.32;;;3.88;;
21827;SDS011;11076;47.942;11.804;2023-07-20T22:41:24;12.07;;;4.10;;
21827;SDS011;11076;47.942;11.804;2023-07-20T22:46:27;4.43;;;3.40;;
21827;SDS011;11076;47.942;11.804;2023-07-20T22:51:29;8.60;;;3.85;;
21827;SDS011;11076;47.942;11.804;2023-07-20T22:56:32;9.30;;;3.20;;
21827;SDS011;11076;47.942;11.804;2023-07-20T23:01:35;4.95;;;3.50;;
21827;SDS011;11076;47.942;11.804;2023-07-20T23:06:38;4.35;;;3.70;;
21827;SDS011;11076;47.942;11.804;2023-07-20T23:11:40;10.95;;;4.07;;
21827;SDS011;11076;47.942;11.804;2023-07-20T23:16:43;9.68;;;4.05;;
21827;SDS011;11076;47.942;11.804;2023-07-20T23:21:45;4.57;;;3.78;;
21827;SDS011;11076;47.942;11.804;2023-07-20T23:26:48;7.57;;;3.58;;
21827;SDS011;11076;47.942;11.804;2023-07-20T23:31:50;4.78;;;3.83;;
21827;SDS011;11076;47.942;11.804;2023-07-20T23:36:53;8.43;;;3.55;;
21827;SDS011;11076;47.942;11.804;2023-07-20T23:41:56;6.35;;;3.53;;
21827;SDS011;11076;47.942;11.804;2023-07-20T23:47:01;6.53;;;4.20;;
21827;SDS011;11076;47.942;11.804;2023-07-20T23:52:03;5.57;;;4.10;;
21827;SDS011;11076;47.942;11.804;2023-07-20T23:57:07;7.15;;;4.22;;
